sensor_id;sensor_type;location;lat;lon;timestamp;pressure;altitude;pressure_sealevel;temperature;humidity
37856;BME280;23694;43.274;26.924;2023-08-12T00:00:32;99298.34;;;19.56;83.62
37856;BME280;23694;43.274;26.924;2023-08-12T00:02:58;99304.06;;;19.34;85.16
37856;BME280;23694;43.274;26.924;2023-08-12T00:05:24;99295.56;;;19.48;85.67
37856;BME280;23694;43.274;26.924;2023-08-12T00:07:50;99292.56;;;19.61;84.81
37856;BME280;23694;43.274;26.924;2023-08-12T00:10:17;99289.25;;;19.49;85.32
37856;BME280;23694;43.274;26.924;2023-08-12T00:12:43;99291.22;;;19.57;85.21
37856;BME280;23694;43.274;26.924;2023-08-12T00:15:09;99296.00;;;19.53;85.35
37856;BME280;23694;43.274;26.924;2023-08-12T00:17:36;99289.97;;;19.69;84.40
37856;BME280;23694;43.274;26.924;2023-08-12T00:20:06;99291.34;;;19.73;83.66
37856;BME280;23694;43.274;26.924;2023-08-12T00:22:34;99284.19;;;19.74;82.62
37856;BME280;23694;43.274;26.924;2023-08-12T00:25:00;99279.63;;;19.84;81.62
37856;BME280;23694;43.274;26.924;2023-08-12T00:27:26;99283.94;;;19.85;80.93
37856;BME280;23694;43.274;26.924;2023-08-12T00:29:52;99277.13;;;19.82;80.72
37856;BME280;23694;43.274;26.924;2023-08-12T00:32:18;99284.19;;;19.74;80.36
37856;BME280;23694;43.274;26.924;2023-08-12T00:34:44;99285.34;;;19.71;80.40
37856;BME280;23694;43.274;26.924;2023-08-12T00:37:10;99272.91;;;19.72;79.67
37856;BME280;23694;43.274;26.924;2023-08-12T00:39:37;99280.88;;;19.72;79.45
37856;BME280;23694;43.274;26.924;2023-08-12T00:42:03;99291.19;;;19.75;78.78
37856;BME280;23694;43.274;26.924;2023-08-12T00:44:29;99284.50;;;19.71;78.17
37856;BME280;23694;43.274;26.924;2023-08-12T00:46:55;99278.53;;;19.69;77.65
37856;BME280;23694;43.274;26.924;2023-08-12T00:49:22;99293.84;;;19.75;77.06
37856;BME280;23694;43.274;26.924;2023-08-12T00:51:50;99291.66;;;19.70;76.49
37856;BME280;23694;43.274;26.924;2023-08-12T00:54:19;99297.19;;;19.77;76.67
37856;BME280;23694;43.274;26.924;2023-08-12T00:56:49;99288.91;;;19.80;76.12
37856;BME280;23694;43.274;26.924;2023-08-12T00:59:16;99294.53;;;19.77;75.92
37856;BME280;23694;43.274;26.924;2023-08-12T01:01:43;99302.81;;;19.74;75.94
37856;BME280;23694;43.274;26.924;2023-08-12T01:04:10;99296.19;;;19.78;75.74
37856;BME280;23694;43.274;26.924;2023-08-12T01:06:36;99295.50;;;19.76;75.35
37856;BME280;23694;43.274;26.924;2023-08-12T01:09:03;99293.16;;;19.73;76.07
37856;BME280;23694;43.274;26.924;2023-08-12T01:11:49;99289.50;;;19.74;75.76
37856;BME280;23694;43.274;26.924;2023-08-12T01:14:30;99297.50;;;19.74;75.93
37856;BME280;23694;43.274;26.924;2023-08-12T01:17:01;99293.63;;;19.68;75.67
37856;BME280;23694;43.274;26.924;2023-08-12T01:19:35;99294.84;;;19.74;75.41
37856;BME280;23694;43.274;26.924;2023-08-12T01:22:03;99298.16;;;19.76;75.54
37856;BME280;23694;43.274;26.924;2023-08-12T01:24:37;99296.19;;;19.78;75.29
37856;BME280;23694;43.274;26.924;2023-08-12T01:27:04;99296.34;;;19.76;75.12
37856;BME280;23694;43.274;26.924;2023-08-12T01:29:35;99292.13;;;19.66;75.69
37856;BME280;23694;43.274;26.924;2023-08-12T01:34:57;99294.09;;;19.63;75.89
37856;BME280;23694;43.274;26.924;2023-08-12T01:37:29;99305.06;;;19.51;76.45
37856;BME280;23694;43.274;26.924;2023-08-12T01:39:59;99301.31;;;19.53;76.69
37856;BME280;23694;43.274;26.924;2023-08-12T01:42:27;99306.13;;;19.40;77.13
37856;BME280;23694;43.274;26.924;2023-08-12T01:44:54;99305.97;;;19.42;77.17
37856;BME280;23694;43.274;26.924;2023-08-12T01:47:20;99308.00;;;19.48;76.59
37856;BME280;23694;43.274;26.924;2023-08-12T01:49:46;99296.47;;;19.39;76.68
37856;BME280;23694;43.274;26.924;2023-08-12T01:52:12;99308.78;;;19.40;76.66
37856;BME280;23694;43.274;26.924;2023-08-12T01:54:38;99304.44;;;19.39;76.61
37856;BME280;23694;43.274;26.924;2023-08-12T01:57:04;99297.25;;;19.31;77.11
37856;BME280;23694;43.274;26.924;2023-08-12T01:59:32;99298.53;;;19.10;78.12
37856;BME280;23694;43.274;26.924;2023-08-12T02:01:58;99300.09;;;19.03;78.35
37856;BME280;23694;43.274;26.924;2023-08-12T02:04:25;99298.81;;;19.07;78.23
37856;BME280;23694;43.274;26.924;2023-08-12T02:06:51;99302.22;;;18.99;78.63
37856;BME280;23694;43.274;26.924;2023-08-12T02:09:17;99305.19;;;18.96;78.88
37856;BME280;23694;43.274;26.924;2023-08-12T02:11:43;99306.78;;;19.07;78.29
37856;BME280;23694;43.274;26.924;2023-08-12T02:14:09;99308.75;;;19.05;78.04
37856;BME280;23694;43.274;26.924;2023-08-12T02:16:35;99307.78;;;19.06;78.20
37856;BME280;23694;43.274;26.924;2023-08-12T02:19:01;99314.44;;;19.10;77.90
37856;BME280;23694;43.274;26.924;2023-08-12T02:21:27;99316.72;;;19.05;78.18
37856;BME280;23694;43.274;26.924;2023-08-12T02:23:53;99320.91;;;19.07;78.16
37856;BME280;23694;43.274;26.924;2023-08-12T02:26:20;99322.94;;;18.95;77.93
37856;BME280;23694;43.274;26.924;2023-08-12T02:28:46;99327.44;;;18.85;78.81
37856;BME280;23694;43.274;26.924;2023-08-12T02:31:12;99331.03;;;18.94;78.73
37856;BME280;23694;43.274;26.924;2023-08-12T02:33:38;99329.38;;;18.93;78.41
37856;BME280;23694;43.274;26.924;2023-08-12T02:36:04;99328.09;;;18.97;78.64
37856;BME280;23694;43.274;26.924;2023-08-12T02:38:30;99321.78;;;18.98;78.20
37856;BME280;23694;43.274;26.924;2023-08-12T02:40:56;99326.41;;;18.96;78.36
37856;BME280;23694;43.274;26.924;2023-08-12T02:43:22;99334.38;;;18.96;78.53
37856;BME280;23694;43.274;26.924;2023-08-12T02:45:48;99335.66;;;18.92;78.58
37856;BME280;23694;43.274;26.924;2023-08-12T02:48:14;99334.53;;;18.94;78.59
37856;BME280;23694;43.274;26.924;2023-08-12T02:50:40;99334.13;;;18.89;78.75
37856;BME280;23694;43.274;26.924;2023-08-12T02:53:08;99332.31;;;18.90;78.93
37856;BME280;23694;43.274;26.924;2023-08-12T02:55:34;99330.81;;;18.87;79.04
37856;BME280;23694;43.274;26.924;2023-08-12T02:58:01;99339.59;;;18.88;79.23
37856;BME280;23694;43.274;26.924;2023-08-12T03:00:27;99333.31;;;18.79;79.33
37856;BME280;23694;43.274;26.924;2023-08-12T03:02:53;99332.19;;;18.82;79.60
37856;BME280;23694;43.274;26.924;2023-08-12T03:05:20;99333.63;;;18.76;79.67
37856;BME280;23694;43.274;26.924;2023-08-12T03:07:46;99337.66;;;18.80;79.65
37856;BME280;23694;43.274;26.924;2023-08-12T03:10:12;99337.34;;;18.83;79.33
37856;BME280;23694;43.274;26.924;2023-08-12T03:12:39;99330.06;;;18.85;79.43
37856;BME280;23694;43.274;26.924;2023-08-12T03:15:06;99331.91;;;18.85;79.29
37856;BME280;23694;43.274;26.924;2023-08-12T03:17:32;99333.31;;;18.89;79.09
37856;BME280;23694;43.274;26.924;2023-08-12T03:19:59;99326.03;;;18.91;78.78
37856;BME280;23694;43.274;26.924;2023-08-12T03:22:27;99337.47;;;18.91;78.90
37856;BME280;23694;43.274;26.924;2023-08-12T03:24:53;99332.63;;;18.87;79.41
37856;BME280;23694;43.274;26.924;2023-08-12T03:27:19;99331.22;;;18.83;79.96
37856;BME280;23694;43.274;26.924;2023-08-12T03:29:45;99333.94;;;19.00;79.17
37856;BME280;23694;43.274;26.924;2023-08-12T03:32:11;99337.91;;;19.14;78.62
37856;BME280;23694;43.274;26.924;2023-08-12T03:34:37;99341.25;;;19.34;77.83
37856;BME280;23694;43.274;26.924;2023-08-12T03:37:03;99344.81;;;19.52;76.72
37856;BME280;23694;43.274;26.924;2023-08-12T03:39:29;99347.16;;;19.73;75.58
37856;BME280;23694;43.274;26.924;2023-08-12T03:41:55;99338.84;;;19.94;74.91
37856;BME280;23694;43.274;26.924;2023-08-12T03:44:21;99344.50;;;20.17;73.39
37856;BME280;23694;43.274;26.924;2023-08-12T03:46:47;99339.78;;;20.29;72.50
37856;BME280;23694;43.274;26.924;2023-08-12T03:49:13;99339.41;;;20.49;72.09
37856;BME280;23694;43.274;26.924;2023-08-12T03:51:39;99342.53;;;20.79;70.31
37856;BME280;23694;43.274;26.924;2023-08-12T03:54:06;99339.69;;;21.14;69.16
37856;BME280;23694;43.274;26.924;2023-08-12T03:56:32;99348.81;;;21.46;67.03
37856;BME280;23694;43.274;26.924;2023-08-12T03:58:58;99350.00;;;21.76;65.92
37856;BME280;23694;43.274;26.924;2023-08-12T04:01:24;99351.88;;;22.16;64.33
37856;BME280;23694;43.274;26.924;2023-08-12T04:03:50;99356.09;;;22.58;62.46
37856;BME280;23694;43.274;26.924;2023-08-12T04:06:16;99367.84;;;23.04;60.78
37856;BME280;23694;43.274;26.924;2023-08-12T04:08:42;99364.25;;;23.51;58.67
37856;BME280;23694;43.274;26.924;2023-08-12T04:11:08;99370.16;;;23.92;56.72
37856;BME280;23694;43.274;26.924;2023-08-12T04:13:34;99365.72;;;24.22;54.88
37856;BME280;23694;43.274;26.924;2023-08-12T04:16:00;99357.13;;;24.64;53.43
37856;BME280;23694;43.274;26.924;2023-08-12T04:18:26;99367.75;;;24.87;52.62
37856;BME280;23694;43.274;26.924;2023-08-12T04:20:53;99373.81;;;25.25;51.36
37856;BME280;23694;43.274;26.924;2023-08-12T04:23:19;99365.50;;;25.71;50.18
37856;BME280;23694;43.274;26.924;2023-08-12T04:25:48;99377.72;;;26.22;47.98
37856;BME280;23694;43.274;26.924;2023-08-12T04:28:15;99370.75;;;26.56;47.12
37856;BME280;23694;43.274;26.924;2023-08-12T04:30:46;99370.63;;;26.99;46.37
37856;BME280;23694;43.274;26.924;2023-08-12T04:33:13;99377.25;;;27.51;45.04
37856;BME280;23694;43.274;26.924;2023-08-12T04:35:40;99372.91;;;27.56;44.29
37856;BME280;23694;43.274;26.924;2023-08-12T04:38:07;99371.38;;;28.15;42.70
37856;BME280;23694;43.274;26.924;2023-08-12T04:40:33;99378.38;;;28.68;40.79
37856;BME280;23694;43.274;26.924;2023-08-12T04:42:59;99378.38;;;28.88;40.77
37856;BME280;23694;43.274;26.924;2023-08-12T04:45:25;99373.56;;;29.48;39.21
37856;BME280;23694;43.274;26.924;2023-08-12T04:47:52;99379.13;;;29.91;38.36
37856;BME280;23694;43.274;26.924;2023-08-12T04:50:18;99380.88;;;30.54;36.47
37856;BME280;23694;43.274;26.924;2023-08-12T04:52:44;99383.28;;;30.87;35.85
37856;BME280;23694;43.274;26.924;2023-08-12T04:55:10;99383.38;;;31.17;35.76
37856;BME280;23694;43.274;26.924;2023-08-12T04:57:36;99386.25;;;31.52;33.65
37856;BME280;23694;43.274;26.924;2023-08-12T05:00:03;99390.50;;;31.78;33.70
37856;BME280;23694;43.274;26.924;2023-08-12T05:02:29;99394.50;;;32.17;33.32
37856;BME280;23694;43.274;26.924;2023-08-12T05:04:55;99389.47;;;32.91;31.69
37856;BME280;23694;43.274;26.924;2023-08-12T05:07:22;99388.75;;;33.47;31.00
37856;BME280;23694;43.274;26.924;2023-08-12T05:09:48;99399.03;;;34.02;30.42
37856;BME280;23694;43.274;26.924;2023-08-12T05:12:14;99393.25;;;34.32;29.90
37856;BME280;23694;43.274;26.924;2023-08-12T05:14:40;99391.91;;;34.85;28.70
37856;BME280;23694;43.274;26.924;2023-08-12T05:17:06;99383.75;;;35.07;27.82
37856;BME280;23694;43.274;26.924;2023-08-12T05:19:32;99383.34;;;34.76;27.55
37856;BME280;23694;43.274;26.924;2023-08-12T05:21:58;99393.19;;;34.60;28.56
37856;BME280;23694;43.274;26.924;2023-08-12T05:24:24;99390.16;;;34.95;27.75
37856;BME280;23694;43.274;26.924;2023-08-12T05:26:50;99388.38;;;35.06;27.72
37856;BME280;23694;43.274;26.924;2023-08-12T05:29:16;99388.03;;;35.68;27.11
37856;BME280;23694;43.274;26.924;2023-08-12T05:31:42;99394.09;;;35.48;26.70
37856;BME280;23694;43.274;26.924;2023-08-12T05:34:08;99391.88;;;31.99;31.16
37856;BME280;23694;43.274;26.924;2023-08-12T05:36:35;99394.78;;;32.62;31.02
37856;BME280;23694;43.274;26.924;2023-08-12T05:39:02;99386.81;;;33.19;30.34
37856;BME280;23694;43.274;26.924;2023-08-12T05:41:29;99398.22;;;32.58;30.83
37856;BME280;23694;43.274;26.924;2023-08-12T05:43:55;99397.19;;;32.05;32.02
37856;BME280;23694;43.274;26.924;2023-08-12T05:46:21;99390.91;;;31.33;33.34
37856;BME280;23694;43.274;26.924;2023-08-12T05:48:47;99393.34;;;30.55;34.23
37856;BME280;23694;43.274;26.924;2023-08-12T05:51:13;99388.75;;;30.12;34.55
37856;BME280;23694;43.274;26.924;2023-08-12T05:53:39;99391.66;;;29.48;36.42
37856;BME280;23694;43.274;26.924;2023-08-12T05:56:05;99386.59;;;29.07;37.62
37856;BME280;23694;43.274;26.924;2023-08-12T05:58:31;99382.94;;;28.75;37.85
37856;BME280;23694;43.274;26.924;2023-08-12T06:00:57;99381.50;;;28.52;38.21
37856;BME280;23694;43.274;26.924;2023-08-12T06:03:23;99376.13;;;28.39;39.06
37856;BME280;23694;43.274;26.924;2023-08-12T06:05:50;99387.94;;;28.18;39.32
37856;BME280;23694;43.274;26.924;2023-08-12T06:08:16;99384.94;;;27.60;39.74
37856;BME280;23694;43.274;26.924;2023-08-12T06:10:42;99385.31;;;27.51;40.84
37856;BME280;23694;43.274;26.924;2023-08-12T06:13:08;99388.22;;;27.49;40.20
37856;BME280;23694;43.274;26.924;2023-08-12T06:15:34;99385.34;;;27.57;41.23
37856;BME280;23694;43.274;26.924;2023-08-12T06:18:01;99383.72;;;27.69;40.84
37856;BME280;23694;43.274;26.924;2023-08-12T06:20:27;99381.06;;;27.76;40.70
37856;BME280;23694;43.274;26.924;2023-08-12T06:22:54;99385.34;;;27.57;40.58
37856;BME280;23694;43.274;26.924;2023-08-12T06:25:20;99386.50;;;26.94;41.05
37856;BME280;23694;43.274;26.924;2023-08-12T06:27:46;99386.88;;;26.84;42.02
37856;BME280;23694;43.274;26.924;2023-08-12T06:30:13;99386.09;;;26.97;41.85
37856;BME280;23694;43.274;26.924;2023-08-12T06:32:40;99388.47;;;27.13;41.07
37856;BME280;23694;43.274;26.924;2023-08-12T06:35:06;99385.44;;;27.29;41.10
37856;BME280;23694;43.274;26.924;2023-08-12T06:37:33;99383.78;;;27.28;40.84
37856;BME280;23694;43.274;26.924;2023-08-12T06:39:59;99387.78;;;26.14;43.49
37856;BME280;23694;43.274;26.924;2023-08-12T06:42:25;99385.63;;;25.31;45.38
37856;BME280;23694;43.274;26.924;2023-08-12T06:44:58;99384.28;;;25.71;45.21
37856;BME280;23694;43.274;26.924;2023-08-12T06:47:25;99384.41;;;25.84;45.86
37856;BME280;23694;43.274;26.924;2023-08-12T06:49:53;99391.38;;;25.64;45.22
37856;BME280;23694;43.274;26.924;2023-08-12T06:52:19;99383.97;;;26.30;43.57
37856;BME280;23694;43.274;26.924;2023-08-12T06:54:45;99386.59;;;26.44;42.79
37856;BME280;23694;43.274;26.924;2023-08-12T06:57:11;99386.63;;;26.23;43.86
37856;BME280;23694;43.274;26.924;2023-08-12T06:59:38;99387.84;;;26.20;43.39
37856;BME280;23694;43.274;26.924;2023-08-12T07:02:06;99389.88;;;26.40;44.66
37856;BME280;23694;43.274;26.924;2023-08-12T07:04:32;99386.41;;;26.74;42.94
37856;BME280;23694;43.274;26.924;2023-08-12T07:06:59;99389.94;;;26.81;41.65
37856;BME280;23694;43.274;26.924;2023-08-12T07:09:25;99378.94;;;26.41;41.46
37856;BME280;23694;43.274;26.924;2023-08-12T07:11:51;99379.09;;;25.90;43.25
37856;BME280;23694;43.274;26.924;2023-08-12T07:14:17;99381.06;;;26.25;43.54
37856;BME280;23694;43.274;26.924;2023-08-12T07:16:43;99381.16;;;26.66;42.27
37856;BME280;23694;43.274;26.924;2023-08-12T07:19:09;99379.88;;;26.90;42.05
37856;BME280;23694;43.274;26.924;2023-08-12T07:21:35;99377.66;;;27.00;42.10
37856;BME280;23694;43.274;26.924;2023-08-12T07:24:01;99377.66;;;27.00;41.75
37856;BME280;23694;43.274;26.924;2023-08-12T07:26:27;99378.38;;;27.22;42.21
37856;BME280;23694;43.274;26.924;2023-08-12T07:28:53;99378.09;;;27.58;41.39
37856;BME280;23694;43.274;26.924;2023-08-12T07:31:19;99374.41;;;27.72;41.62
37856;BME280;23694;43.274;26.924;2023-08-12T07:33:45;99377.47;;;27.56;40.49
37856;BME280;23694;43.274;26.924;2023-08-12T07:36:11;99371.63;;;27.32;40.90
37856;BME280;23694;43.274;26.924;2023-08-12T07:38:37;99368.84;;;27.19;41.31
37856;BME280;23694;43.274;26.924;2023-08-12T07:41:04;99375.91;;;27.27;41.20
37856;BME280;23694;43.274;26.924;2023-08-12T07:43:30;99364.78;;;26.95;41.83
37856;BME280;23694;43.274;26.924;2023-08-12T07:45:56;99366.06;;;26.65;43.10
37856;BME280;23694;43.274;26.924;2023-08-12T07:48:22;99364.03;;;27.01;41.99
37856;BME280;23694;43.274;26.924;2023-08-12T07:50:55;99358.16;;;27.32;42.18
37856;BME280;23694;43.274;26.924;2023-08-12T07:53:21;99364.59;;;27.38;41.77
37856;BME280;23694;43.274;26.924;2023-08-12T07:55:48;99364.63;;;27.51;41.30
37856;BME280;23694;43.274;26.924;2023-08-12T07:58:14;99362.41;;;27.81;41.95
37856;BME280;23694;43.274;26.924;2023-08-12T08:00:40;99367.38;;;27.84;40.50
37856;BME280;23694;43.274;26.924;2023-08-12T08:03:06;99362.66;;;28.06;40.95
37856;BME280;23694;43.274;26.924;2023-08-12T08:05:32;99351.47;;;28.16;39.05
37856;BME280;23694;43.274;26.924;2023-08-12T08:07:58;99359.75;;;28.21;39.40
37856;BME280;23694;43.274;26.924;2023-08-12T08:10:24;99352.72;;;28.13;39.35
37856;BME280;23694;43.274;26.924;2023-08-12T08:12:50;99355.63;;;28.18;40.45
37856;BME280;23694;43.274;26.924;2023-08-12T08:15:16;99350.44;;;28.10;39.17
37856;BME280;23694;43.274;26.924;2023-08-12T08:17:42;99352.09;;;28.31;39.05
37856;BME280;23694;43.274;26.924;2023-08-12T08:20:08;99351.03;;;28.52;39.07
37856;BME280;23694;43.274;26.924;2023-08-12T08:22:36;99350.00;;;28.66;37.97
37856;BME280;23694;43.274;26.924;2023-08-12T08:25:03;99355.78;;;28.56;37.97
37856;BME280;23694;43.274;26.924;2023-08-12T08:27:29;99352.28;;;28.62;38.59
37856;BME280;23694;43.274;26.924;2023-08-12T08:29:55;99343.28;;;28.95;38.26
37856;BME280;23694;43.274;26.924;2023-08-12T08:32:21;99346.25;;;29.25;36.73
37856;BME280;23694;43.274;26.924;2023-08-12T08:34:48;99345.41;;;29.31;36.88
37856;BME280;23694;43.274;26.924;2023-08-12T08:37:14;99339.03;;;28.15;38.02
37856;BME280;23694;43.274;26.924;2023-08-12T08:39:40;99340.09;;;28.33;38.57
37856;BME280;23694;43.274;26.924;2023-08-12T08:42:06;99334.47;;;28.48;38.07
37856;BME280;23694;43.274;26.924;2023-08-12T08:44:33;99327.56;;;28.79;36.18
37856;BME280;23694;43.274;26.924;2023-08-12T08:47:01;99326.94;;;28.77;36.90
37856;BME280;23694;43.274;26.924;2023-08-12T08:49:28;99335.72;;;29.17;36.21
37856;BME280;23694;43.274;26.924;2023-08-12T08:51:58;99334.22;;;29.27;36.29
37856;BME280;23694;43.274;26.924;2023-08-12T08:54:25;99327.09;;;29.40;35.75
37856;BME280;23694;43.274;26.924;2023-08-12T08:56:51;99325.66;;;29.37;34.64
37856;BME280;23694;43.274;26.924;2023-08-12T08:59:17;99326.00;;;29.09;35.96
37856;BME280;23694;43.274;26.924;2023-08-12T09:01:45;99323.38;;;29.41;35.55
37856;BME280;23694;43.274;26.924;2023-08-12T09:04:17;99318.28;;;29.57;34.34
37856;BME280;23694;43.274;26.924;2023-08-12T09:06:44;99320.44;;;29.49;33.84
37856;BME280;23694;43.274;26.924;2023-08-12T09:09:14;99323.34;;;29.02;34.27
37856;BME280;23694;43.274;26.924;2023-08-12T09:11:41;99317.78;;;28.91;35.73
37856;BME280;23694;43.274;26.924;2023-08-12T09:14:07;99317.25;;;29.14;35.13
37856;BME280;23694;43.274;26.924;2023-08-12T09:16:34;99313.69;;;28.75;35.31
37856;BME280;23694;43.274;26.924;2023-08-12T09:19:00;99316.50;;;29.00;35.33
37856;BME280;23694;43.274;26.924;2023-08-12T09:21:26;99318.13;;;28.30;35.57
37856;BME280;23694;43.274;26.924;2023-08-12T09:23:52;99311.06;;;27.89;36.20
37856;BME280;23694;43.274;26.924;2023-08-12T09:26:20;99307.97;;;28.05;36.58
37856;BME280;23694;43.274;26.924;2023-08-12T09:28:47;99305.06;;;28.20;35.74
37856;BME280;23694;43.274;26.924;2023-08-12T09:31:31;99306.91;;;28.39;34.88
37856;BME280;23694;43.274;26.924;2023-08-12T09:33:59;99302.72;;;28.70;34.47
37856;BME280;23694;43.274;26.924;2023-08-12T09:36:28;99304.88;;;28.99;34.87
37856;BME280;23694;43.274;26.924;2023-08-12T09:38:56;99294.50;;;29.41;33.80
37856;BME280;23694;43.274;26.924;2023-08-12T09:41:27;99301.16;;;29.45;33.72
37856;BME280;23694;43.274;26.924;2023-08-12T09:43:55;99288.94;;;29.36;33.33
37856;BME280;23694;43.274;26.924;2023-08-12T09:46:23;99291.50;;;29.18;34.42
37856;BME280;23694;43.274;26.924;2023-08-12T09:48:52;99286.13;;;28.60;34.19
37856;BME280;23694;43.274;26.924;2023-08-12T09:51:21;99293.28;;;28.01;35.54
37856;BME280;23694;43.274;26.924;2023-08-12T09:53:50;99278.75;;;28.22;35.87
37856;BME280;23694;43.274;26.924;2023-08-12T09:56:18;99273.34;;;28.42;35.89
37856;BME280;23694;43.274;26.924;2023-08-12T09:58:48;99270.16;;;28.71;35.51
37856;BME280;23694;43.274;26.924;2023-08-12T10:01:19;99270.56;;;28.68;35.05
37856;BME280;23694;43.274;26.924;2023-08-12T10:03:49;99271.38;;;28.76;34.64
37856;BME280;23694;43.274;26.924;2023-08-12T10:06:17;99266.44;;;28.59;35.13
37856;BME280;23694;43.274;26.924;2023-08-12T10:08:45;99266.97;;;28.94;35.06
37856;BME280;23694;43.274;26.924;2023-08-12T10:11:12;99264.72;;;29.23;35.63
37856;BME280;23694;43.274;26.924;2023-08-12T10:13:40;99257.22;;;29.25;34.82
37856;BME280;23694;43.274;26.924;2023-08-12T10:16:06;99266.13;;;29.32;34.31
37856;BME280;23694;43.274;26.924;2023-08-12T10:18:34;99263.66;;;29.24;33.66
37856;BME280;23694;43.274;26.924;2023-08-12T10:21:01;99263.03;;;28.90;33.62
37856;BME280;23694;43.274;26.924;2023-08-12T10:23:28;99254.03;;;28.52;34.17
37856;BME280;23694;43.274;26.924;2023-08-12T10:25:56;99263.41;;;29.00;34.39
37856;BME280;23694;43.274;26.924;2023-08-12T10:28:23;99247.88;;;28.31;33.91
37856;BME280;23694;43.274;26.924;2023-08-12T10:30:49;99255.69;;;29.04;34.35
37856;BME280;23694;43.274;26.924;2023-08-12T10:33:16;99249.91;;;29.39;33.88
37856;BME280;23694;43.274;26.924;2023-08-12T10:35:49;99251.91;;;29.50;32.47
37856;BME280;23694;43.274;26.924;2023-08-12T10:38:20;99246.59;;;29.37;32.88
37856;BME280;23694;43.274;26.924;2023-08-12T10:40:47;99253.56;;;29.51;32.11
37856;BME280;23694;43.274;26.924;2023-08-12T10:43:14;99249.00;;;29.76;30.89
37856;BME280;23694;43.274;26.924;2023-08-12T10:45:53;99242.25;;;29.35;31.64
37856;BME280;23694;43.274;26.924;2023-08-12T10:48:23;99243.66;;;29.45;31.90
37856;BME280;23694;43.274;26.924;2023-08-12T10:50:57;99245.53;;;29.69;32.05
37856;BME280;23694;43.274;26.924;2023-08-12T10:53:33;99230.38;;;29.68;33.14
37856;BME280;23694;43.274;26.924;2023-08-12T10:56:05;99237.91;;;29.84;32.27
37856;BME280;23694;43.274;26.924;2023-08-12T10:58:46;99244.41;;;29.77;32.32
37856;BME280;23694;43.274;26.924;2023-08-12T11:01:16;99231.50;;;29.60;33.08
37856;BME280;23694;43.274;26.924;2023-08-12T11:03:44;99228.38;;;29.82;32.83
37856;BME280;23694;43.274;26.924;2023-08-12T11:06:10;99225.81;;;29.93;31.57
37856;BME280;23694;43.274;26.924;2023-08-12T11:08:46;99223.38;;;29.85;31.94
37856;BME280;23694;43.274;26.924;2023-08-12T11:11:24;99223.94;;;29.69;33.00
37856;BME280;23694;43.274;26.924;2023-08-12T11:13:56;99222.91;;;29.88;32.25
37856;BME280;23694;43.274;26.924;2023-08-12T11:16:34;99226.25;;;29.65;32.49
37856;BME280;23694;43.274;26.924;2023-08-12T11:19:02;99229.72;;;29.48;33.01
37856;BME280;23694;43.274;26.924;2023-08-12T11:21:29;99219.66;;;29.30;33.30
37856;BME280;23694;43.274;26.924;2023-08-12T11:23:55;99218.69;;;29.18;33.13
37856;BME280;23694;43.274;26.924;2023-08-12T11:26:23;99224.63;;;29.33;32.30
37856;BME280;23694;43.274;26.924;2023-08-12T11:28:49;99220.81;;;29.09;32.79
37856;BME280;23694;43.274;26.924;2023-08-12T11:31:16;99220.69;;;28.97;32.46
37856;BME280;23694;43.274;26.924;2023-08-12T11:33:43;99220.81;;;29.09;32.92
37856;BME280;23694;43.274;26.924;2023-08-12T11:36:10;99211.63;;;28.85;33.50
37856;BME280;23694;43.274;26.924;2023-08-12T11:38:37;99208.16;;;29.10;32.02
37856;BME280;23694;43.274;26.924;2023-08-12T11:41:03;99205.78;;;29.26;32.89
37856;BME280;23694;43.274;26.924;2023-08-12T11:43:32;99200.75;;;29.61;33.18
37856;BME280;23694;43.274;26.924;2023-08-12T11:45:58;99197.25;;;30.04;31.88
37856;BME280;23694;43.274;26.924;2023-08-12T11:48:27;99194.09;;;30.44;31.21
37856;BME280;23694;43.274;26.924;2023-08-12T11:50:53;99198.16;;;30.35;30.52
37856;BME280;23694;43.274;26.924;2023-08-12T11:53:20;99207.69;;;30.19;30.65
37856;BME280;23694;43.274;26.924;2023-08-12T11:55:46;99199.59;;;30.19;31.03
37856;BME280;23694;43.274;26.924;2023-08-12T11:58:14;99195.31;;;29.86;31.35
37856;BME280;23694;43.274;26.924;2023-08-12T12:00:46;99193.31;;;30.55;31.63
37856;BME280;23694;43.274;26.924;2023-08-12T12:03:13;99192.25;;;30.56;30.25
37856;BME280;23694;43.274;26.924;2023-08-12T12:05:39;99191.94;;;30.71;30.63
37856;BME280;23694;43.274;26.924;2023-08-12T12:08:05;99184.78;;;30.58;30.64
37856;BME280;23694;43.274;26.924;2023-08-12T12:10:34;99188.25;;;30.28;30.64
37856;BME280;23694;43.274;26.924;2023-08-12T12:13:03;99192.44;;;30.43;30.59
37856;BME280;23694;43.274;26.924;2023-08-12T12:15:30;99192.13;;;30.51;30.73
37856;BME280;23694;43.274;26.924;2023-08-12T12:17:57;99184.28;;;29.88;31.17
37856;BME280;23694;43.274;26.924;2023-08-12T12:20:23;99186.72;;;29.96;30.82
37856;BME280;23694;43.274;26.924;2023-08-12T12:22:49;99175.59;;;29.86;30.74
37856;BME280;23694;43.274;26.924;2023-08-12T12:25:17;99174.16;;;30.08;30.53
37856;BME280;23694;43.274;26.924;2023-08-12T12:27:46;99172.72;;;30.06;31.28
37856;BME280;23694;43.274;26.924;2023-08-12T12:30:14;99179.66;;;29.95;30.86
37856;BME280;23694;43.274;26.924;2023-08-12T12:32:40;99171.59;;;29.70;30.86
37856;BME280;23694;43.274;26.924;2023-08-12T12:35:07;99168.50;;;29.42;31.33
37856;BME280;23694;43.274;26.924;2023-08-12T12:37:34;99170.00;;;29.38;31.92
37856;BME280;23694;43.274;26.924;2023-08-12T12:40:00;99166.31;;;29.32;32.13
37856;BME280;23694;43.274;26.924;2023-08-12T12:42:26;99171.94;;;29.24;32.44
37856;BME280;23694;43.274;26.924;2023-08-12T12:44:52;99172.63;;;28.88;32.26
37856;BME280;23694;43.274;26.924;2023-08-12T12:47:19;99162.34;;;28.71;33.27
37856;BME280;23694;43.274;26.924;2023-08-12T12:49:45;99172.25;;;28.84;32.45
37856;BME280;23694;43.274;26.924;2023-08-12T12:52:11;99163.06;;;28.92;32.47